Time;durP1;ratioP1;P1;durP2;ratioP2;P2;SDS_P1;SDS_P2;PMS_P1;PMS_P2;Temp;Humidity;BMP_temperature;BMP_pressure;BME280_temperature;BME280_humidity;BME280_pressure;Samples;Min_cycle;Max_cycle;Signal;HPM_P1;HPM_P2
2022/10/31 00:00:17;;;;;;;14.73;11.93;;;10.60;99.90;;;;;;5033715;28;20185;-88
2022/10/31 00:02:43;;;;;;;16.70;11.70;;;10.60;99.90;;;;;;5034809;28;20220;-81
2022/10/31 00:05:08;;;;;;;13.57;11.07;;;10.50;99.90;;;;;;5038524;28;20456;-92
2022/10/31 00:07:43;;;;;;;15.73;10.67;;;10.50;99.90;;;;;;5037709;28;20167;-80
2022/10/31 00:10:09;;;;;;;13.70;9.60;;;10.50;99.90;;;;;;5037443;28;20584;-94
2022/10/31 00:12:34;;;;;;;13.13;10.53;;;10.50;99.90;;;;;;5037839;28;20489;-80
2022/10/31 00:15:00;;;;;;;14.00;10.57;;;10.50;99.90;;;;;;5037900;28;20642;-83
2022/10/31 00:17:25;;;;;;;13.90;10.80;;;10.40;99.90;;;;;;5037882;28;20177;-81
2022/10/31 00:19:51;;;;;;;11.73;9.27;;;10.30;99.90;;;;;;5037590;28;20220;-80
2022/10/31 00:22:16;;;;;;;13.07;9.53;;;10.40;99.90;;;;;;5037064;28;20179;-87
2022/10/31 00:24:42;;;;;;;12.87;10.17;;;10.40;99.90;;;;;;5037086;28;20182;-80
2022/10/31 00:27:07;;;;;;;11.37;9.20;;;10.50;99.90;;;;;;5035447;28;20185;-88
2022/10/31 00:29:33;;;;;;;12.53;10.20;;;10.40;99.90;;;;;;5037003;28;20591;-80
2022/10/31 00:31:58;;;;;;;13.07;10.30;;;10.40;99.90;;;;;;5036931;28;20171;-81
2022/10/31 00:34:23;;;;;;;11.60;9.20;;;10.40;99.90;;;;;;5036822;28;20210;-93
2022/10/31 00:36:49;;;;;;;11.70;9.73;;;10.40;99.90;;;;;;5036990;28;20538;-80
2022/10/31 00:39:14;;;;;;;9.23;8.23;;;10.40;99.90;;;;;;5037884;28;20205;-80
2022/10/31 00:41:40;;;;;;;12.20;8.90;;;10.30;99.90;;;;;;5036735;28;20166;-92
2022/10/31 00:44:05;;;;;;;10.30;8.50;;;10.30;99.90;;;;;;5037497;28;20622;-82
2022/10/31 00:46:31;;;;;;;10.03;7.07;;;10.20;99.90;;;;;;5037729;28;20224;-80
2022/10/31 00:48:56;;;;;;;11.93;8.97;;;10.20;99.90;;;;;;5037498;28;20174;-81
2022/10/31 00:51:22;;;;;;;8.80;7.80;;;10.20;99.90;;;;;;5036448;28;20218;-80
2022/10/31 00:53:47;;;;;;;9.90;8.50;;;10.20;99.90;;;;;;5036988;28;20186;-81
2022/10/31 00:56:13;;;;;;;11.50;8.20;;;10.20;99.90;;;;;;5036572;28;20257;-90
2022/10/31 00:58:38;;;;;;;13.53;8.80;;;10.10;99.90;;;;;;5036524;28;20202;-81
2022/10/31 01:01:04;;;;;;;10.13;8.23;;;10.20;99.90;;;;;;5036838;28;20183;-83
2022/10/31 01:03:32;;;;;;;11.57;9.00;;;10.20;99.90;;;;;;5036133;28;20170;-80
2022/10/31 01:06:09;;;;;;;10.20;8.23;;;10.10;99.90;;;;;;5036174;28;20408;-81
2022/10/31 01:08:36;;;;;;;10.43;7.53;;;10.10;99.90;;;;;;5036235;28;20415;-80
2022/10/31 01:11:15;;;;;;;9.17;7.97;;;10.10;99.90;;;;;;5035610;28;20467;-88
2022/10/31 01:13:41;;;;;;;11.20;9.00;;;10.10;99.90;;;;;;5035828;28;20401;-93
2022/10/31 01:16:09;;;;;;;10.20;7.10;;;10.10;99.90;;;;;;5036179;28;20532;-80
2022/10/31 01:18:35;;;;;;;8.50;7.13;;;10.00;99.90;;;;;;5035910;28;20487;-82
2022/10/31 01:21:08;;;;;;;10.67;8.13;;;10.00;99.90;;;;;;5036241;28;20473;-80
2022/10/31 01:23:34;;;;;;;8.43;6.37;;;10.10;99.90;;;;;;5036011;28;20202;-80
2022/10/31 01:26:02;;;;;;;9.70;7.13;;;10.10;99.90;;;;;;5036058;28;20778;-81
2022/10/31 01:28:27;;;;;;;10.30;7.30;;;10.10;99.90;;;;;;5036135;28;20170;-80
2022/10/31 01:30:53;;;;;;;11.07;8.10;;;10.10;99.90;;;;;;5036531;28;20780;-91
2022/10/31 01:33:18;;;;;;;10.27;7.87;;;10.10;99.90;;;;;;5035918;28;20166;-80
2022/10/31 01:35:44;;;;;;;11.67;8.20;;;10.10;99.90;;;;;;5035822;28;20542;-81
2022/10/31 01:38:09;;;;;;;8.50;6.87;;;10.10;99.90;;;;;;5035675;28;20198;-80
2022/10/31 01:40:35;;;;;;;13.57;7.90;;;10.20;99.90;;;;;;5035239;28;20653;-80
2022/10/31 01:43:00;;;;;;;7.87;7.00;;;10.20;99.90;;;;;;5035468;28;20171;-80
2022/10/31 01:45:26;;;;;;;8.20;7.33;;;10.10;99.90;;;;;;5035716;28;20221;-88
2022/10/31 01:47:51;;;;;;;8.30;6.83;;;10.00;99.90;;;;;;5035682;28;20660;-80
2022/10/31 01:50:32;;;;;;;10.77;6.87;;;10.00;99.90;;;;;;5035317;28;20228;-81
2022/10/31 01:53:00;;;;;;;10.80;7.30;;;9.90;99.90;;;;;;5035625;28;20195;-81
2022/10/31 01:55:32;;;;;;;8.50;6.90;;;9.90;99.90;;;;;;5035573;28;20966;-80
2022/10/31 01:58:01;;;;;;;6.87;5.90;;;10.00;99.90;;;;;;5035279;28;21020;-80
2022/10/31 02:00:27;;;;;;;7.93;6.30;;;9.90;99.90;;;;;;5035259;28;20431;-82
2022/10/31 02:02:55;;;;;;;8.00;6.03;;;9.90;99.90;;;;;;5035398;28;20411;-91
2022/10/31 02:05:24;;;;;;;9.53;6.60;;;9.90;99.90;;;;;;5035295;28;20207;-80
2022/10/31 02:08:04;;;;;;;7.20;6.30;;;9.90;99.90;;;;;;5035235;28;20417;-81
2022/10/31 02:10:32;;;;;;;6.93;5.47;;;9.90;99.90;;;;;;5034861;28;20855;-80
2022/10/31 02:13:00;;;;;;;6.90;5.47;;;9.80;99.90;;;;;;5035173;28;20428;-80
2022/10/31 02:15:26;;;;;;;8.27;6.40;;;9.80;99.90;;;;;;5035247;28;20416;-80
2022/10/31 02:17:51;;;;;;;8.63;5.83;;;9.80;99.90;;;;;;5035070;28;20494;-80
2022/10/31 02:20:18;;;;;;;9.37;6.53;;;9.80;99.90;;;;;;5034922;28;20205;-86
2022/10/31 02:23:14;;;;;;;6.17;5.13;;;9.70;99.90;;;;;;5034747;28;20254;-79
2022/10/31 02:25:52;;;;;;;7.53;5.40;;;9.70;99.90;;;;;;5016086;28;21015;-81
2022/10/31 02:28:29;;;;;;;7.63;5.43;;;9.70;99.90;;;;;;5034906;28;20754;-80
2022/10/31 02:31:13;;;;;;;7.13;5.67;;;9.60;99.90;;;;;;5034818;28;20412;-80
2022/10/31 02:33:58;;;;;;;6.10;5.07;;;9.60;99.90;;;;;;5034648;28;20414;-79
2022/10/31 02:36:36;;;;;;;8.30;5.47;;;9.60;99.90;;;;;;5034613;28;20448;-92
2022/10/31 02:39:12;;;;;;;8.00;6.33;;;9.70;99.90;;;;;;5034617;28;20473;-81
2022/10/31 02:41:50;;;;;;;8.33;6.27;;;9.70;99.90;;;;;;5034294;28;20495;-80
2022/10/31 02:44:45;;;;;;;14.30;5.73;;;9.70;99.90;;;;;;5034551;28;20815;-80
2022/10/31 02:47:17;;;;;;;10.77;6.10;;;9.80;99.90;;;;;;5034395;28;20417;-80
2022/10/31 02:50:06;;;;;;;8.00;6.83;;;9.90;99.90;;;;;;5033978;28;20873;-83
2022/10/31 02:52:33;;;;;;;8.03;6.97;;;10.00;99.90;;;;;;5033924;28;20777;-90
2022/10/31 02:55:31;;;;;;;10.13;6.90;;;10.20;99.90;;;;;;5033501;28;20408;-80
2022/10/31 02:58:06;;;;;;;7.27;5.13;;;10.20;99.90;;;;;;5033829;28;20433;-80
2022/10/31 03:00:54;;;;;;;8.77;6.83;;;10.20;99.90;;;;;;5033467;28;20789;-80
2022/10/31 03:03:39;;;;;;;7.20;5.47;;;10.20;99.90;;;;;;5033772;28;20487;-80
2022/10/31 03:06:19;;;;;;;7.33;6.40;;;10.10;99.90;;;;;;5033746;28;20493;-83
2022/10/31 03:09:03;;;;;;;8.97;6.47;;;10.00;99.90;;;;;;5033791;28;20772;-94
2022/10/31 03:11:36;;;;;;;8.97;6.57;;;9.90;99.90;;;;;;5033178;28;20429;-89
2022/10/31 03:14:10;;;;;;;8.00;6.80;;;9.80;99.90;;;;;;5033371;28;20395;-86
2022/10/31 03:16:49;;;;;;;8.60;6.97;;;9.80;99.90;;;;;;5033405;28;20423;-93
2022/10/31 03:19:30;;;;;;;7.73;6.17;;;9.70;99.90;;;;;;5033328;28;20520;-80
2022/10/31 03:21:57;;;;;;;8.53;6.60;;;9.70;99.90;;;;;;5033699;28;20443;-80
2022/10/31 03:24:29;;;;;;;8.97;6.73;;;9.70;99.90;;;;;;5015590;28;21057;-93
2022/10/31 03:26:59;;;;;;;8.17;6.30;;;9.70;99.90;;;;;;5032864;28;20427;-94
2022/10/31 03:29:28;;;;;;;7.33;5.13;;;9.60;99.90;;;;;;5033431;28;20443;-81
2022/10/31 03:32:05;;;;;;;6.40;5.10;;;9.70;99.90;;;;;;5034078;28;20418;-86
2022/10/31 03:34:31;;;;;;;8.93;6.40;;;9.70;99.90;;;;;;5032962;28;20423;-80
2022/10/31 03:37:01;;;;;;;9.80;7.67;;;9.70;99.90;;;;;;5032530;28;20416;-81
2022/10/31 03:39:27;;;;;;;8.23;5.53;;;9.70;99.90;;;;;;5032478;28;20472;-80
2022/10/31 03:41:58;;;;;;;7.10;5.80;;;9.60;99.90;;;;;;5032230;28;20970;-82
2022/10/31 03:44:24;;;;;;;10.13;6.60;;;9.70;99.90;;;;;;5032459;28;20479;-81
2022/10/31 03:46:50;;;;;;;7.10;5.10;;;9.70;99.90;;;;;;5032473;28;20446;-81
2022/10/31 03:49:16;;;;;;;8.07;5.63;;;9.60;99.90;;;;;;4997152;28;1010573;-93
2022/10/31 03:51:53;;;;;;;10.20;6.57;;;9.60;99.90;;;;;;5033461;28;20424;-80
2022/10/31 03:54:56;;;;;;;6.80;5.33;;;9.60;99.90;;;;;;5033250;28;20439;-81
2022/10/31 03:57:35;;;;;;;6.77;5.47;;;9.50;99.90;;;;;;5027012;28;21006;-90
2022/10/31 04:00:15;;;;;;;7.30;5.50;;;9.50;99.90;;;;;;5033539;28;20600;-92
2022/10/31 04:02:46;;;;;;;8.50;5.10;;;9.50;99.90;;;;;;5016022;28;20455;-81
2022/10/31 04:05:13;;;;;;;6.33;5.37;;;9.40;99.90;;;;;;5033690;28;20481;-91
2022/10/31 04:07:43;;;;;;;7.10;4.90;;;9.40;99.90;;;;;;5034352;28;20444;-93
2022/10/31 04:10:12;;;;;;;9.80;5.67;;;9.40;99.90;;;;;;5033394;28;20741;-81
2022/10/31 04:12:40;;;;;;;7.27;5.30;;;9.40;99.90;;;;;;5031787;28;20504;-81
2022/10/31 04:15:07;;;;;;;7.30;5.40;;;9.40;99.90;;;;;;5031786;28;20454;-81
2022/10/31 04:17:37;;;;;;;7.10;5.00;;;9.30;99.90;;;;;;5032992;28;20538;-81
2022/10/31 04:20:04;;;;;;;6.07;5.40;;;9.30;99.90;;;;;;5031785;28;20476;-80
2022/10/31 04:22:29;;;;;;;9.80;6.57;;;9.30;99.90;;;;;;5032992;28;20425;-81
2022/10/31 04:24:55;;;;;;;7.30;4.90;;;9.30;99.90;;;;;;5032934;28;20781;-80
2022/10/31 04:27:20;;;;;;;7.27;5.70;;;9.30;99.90;;;;;;5032568;28;20172;-80
2022/10/31 04:29:46;;;;;;;9.20;5.00;;;9.20;99.90;;;;;;5033098;28;20542;-80
2022/10/31 04:32:11;;;;;;;6.73;4.67;;;9.30;99.90;;;;;;5033065;28;20180;-82
2022/10/31 04:34:36;;;;;;;6.73;5.37;;;9.30;99.90;;;;;;5033357;28;20712;-81
2022/10/31 04:37:02;;;;;;;7.57;4.87;;;9.30;99.90;;;;;;5033453;28;20208;-81
2022/10/31 04:39:28;;;;;;;12.77;5.67;;;9.20;99.90;;;;;;5033814;28;20228;-81
2022/10/31 04:41:54;;;;;;;13.03;6.67;;;9.20;99.90;;;;;;5032910;28;20262;-92
2022/10/31 04:44:19;;;;;;;12.50;5.80;;;9.30;99.90;;;;;;5033237;28;20465;-92
2022/10/31 04:46:45;;;;;;;15.40;8.43;;;9.30;99.90;;;;;;5033027;28;20301;-80
2022/10/31 04:49:10;;;;;;;27.23;7.57;;;9.30;99.90;;;;;;5034014;28;20564;-81
2022/10/31 04:51:36;;;;;;;11.17;6.97;;;9.30;99.90;;;;;;5037049;28;20167;-80
2022/10/31 04:54:01;;;;;;;15.40;6.80;;;9.30;99.90;;;;;;5037254;28;20204;-81
2022/10/31 04:56:27;;;;;;;11.97;5.90;;;9.30;99.90;;;;;;5037286;28;20196;-94
2022/10/31 04:58:52;;;;;;;15.97;7.53;;;9.40;99.90;;;;;;5037449;28;20700;-91
2022/10/31 05:01:18;;;;;;;21.73;7.93;;;9.40;99.90;;;;;;5037054;28;20179;-81
2022/10/31 05:03:43;;;;;;;14.27;7.93;;;9.40;99.90;;;;;;5036944;28;20166;-81
2022/10/31 05:06:09;;;;;;;11.90;7.17;;;9.50;99.90;;;;;;5036806;28;20575;-81
2022/10/31 05:08:34;;;;;;;8.73;6.30;;;9.60;99.90;;;;;;5036727;28;20182;-81
2022/10/31 05:11:01;;;;;;;13.80;8.27;;;9.70;99.90;;;;;;5036161;28;20174;-81
2022/10/31 05:13:27;;;;;;;13.67;8.43;;;9.70;99.90;;;;;;5036396;28;20184;-91
2022/10/31 05:15:52;;;;;;;13.90;7.87;;;9.80;99.90;;;;;;5036501;28;20424;-89
2022/10/31 05:18:18;;;;;;;15.13;9.33;;;9.90;99.90;;;;;;5035896;28;20213;-81
2022/10/31 05:20:46;;;;;;;17.27;9.13;;;10.00;99.90;;;;;;5035841;28;20260;-81
2022/10/31 05:23:12;;;;;;;15.10;8.77;;;10.10;99.90;;;;;;5035832;28;20169;-81
2022/10/31 05:25:40;;;;;;;11.23;8.10;;;10.20;99.90;;;;;;5035658;28;20829;-81
2022/10/31 05:28:06;;;;;;;14.87;9.40;;;10.30;99.90;;;;;;5035716;28;20183;-81
2022/10/31 05:30:32;;;;;;;12.70;7.83;;;10.30;99.90;;;;;;5035647;28;20996;-81
2022/10/31 05:32:58;;;;;;;10.67;7.60;;;10.30;99.90;;;;;;5035551;28;20176;-81
2022/10/31 05:35:26;;;;;;;10.53;7.10;;;10.30;99.90;;;;;;5035666;28;20421;-81
2022/10/31 05:37:52;;;;;;;14.00;7.90;;;10.20;99.90;;;;;;5035782;28;20426;-86
2022/10/31 05:40:19;;;;;;;9.83;7.40;;;10.30;99.90;;;;;;5035440;28;21031;-91
2022/10/31 05:42:45;;;;;;;12.67;8.57;;;10.30;99.90;;;;;;5035464;28;20635;-81
2022/10/31 05:45:15;;;;;;;10.93;7.20;;;10.30;99.90;;;;;;5035334;28;20421;-81
2022/10/31 05:47:41;;;;;;;15.00;8.97;;;10.30;99.90;;;;;;5035345;28;20542;-81
2022/10/31 05:50:07;;;;;;;15.13;9.20;;;10.30;99.90;;;;;;5035343;28;20495;-81
2022/10/31 05:52:33;;;;;;;14.83;8.70;;;10.30;99.90;;;;;;5035340;28;20200;-81
2022/10/31 05:54:59;;;;;;;18.60;9.13;;;10.30;99.90;;;;;;5035579;28;20405;-93
2022/10/31 05:57:24;;;;;;;16.30;10.23;;;10.30;99.90;;;;;;5036472;28;20176;-92
2022/10/31 05:59:52;;;;;;;20.47;11.03;;;10.30;99.90;;;;;;5034622;28;20322;-80
2022/10/31 06:02:18;;;;;;;19.40;10.20;;;10.40;99.90;;;;;;5034565;28;20190;-80
2022/10/31 06:04:44;;;;;;;19.60;10.73;;;10.40;99.90;;;;;;5034909;28;20421;-81
2022/10/31 06:07:09;;;;;;;19.60;10.33;;;10.50;99.90;;;;;;5034846;28;20463;-80
2022/10/31 06:09:35;;;;;;;23.37;10.13;;;10.50;99.90;;;;;;5034823;28;20176;-81
2022/10/31 06:12:00;;;;;;;21.13;11.50;;;10.60;99.90;;;;;;5016587;28;20225;-81
2022/10/31 06:14:25;;;;;;;21.67;11.07;;;10.60;99.90;;;;;;5034695;28;20178;-81
2022/10/31 06:16:51;;;;;;;21.93;10.90;;;10.70;99.90;;;;;;5034654;28;20578;-81
2022/10/31 06:19:16;;;;;;;17.77;10.90;;;10.70;99.90;;;;;;5034556;28;20205;-81
2022/10/31 06:21:42;;;;;;;17.70;9.90;;;10.80;99.90;;;;;;5034574;28;20177;-80
2022/10/31 06:24:07;;;;;;;19.23;11.20;;;10.80;99.90;;;;;;5034546;28;20504;-81
2022/10/31 06:26:33;;;;;;;20.07;11.43;;;10.90;99.90;;;;;;5034305;28;20174;-82
2022/10/31 06:28:58;;;;;;;19.60;12.30;;;10.90;99.90;;;;;;5034615;28;20638;-87
2022/10/31 06:31:24;;;;;;;21.73;13.30;;;10.90;99.90;;;;;;5034476;28;20166;-83
2022/10/31 06:33:49;;;;;;;23.13;11.53;;;10.90;99.90;;;;;;5034599;28;20178;-83
2022/10/31 06:36:15;;;;;;;19.90;11.77;;;11.00;99.90;;;;;;5034693;28;20166;-82
2022/10/31 06:38:40;;;;;;;19.93;11.50;;;11.00;99.90;;;;;;5035130;28;20209;-86
2022/10/31 06:41:06;;;;;;;28.47;14.40;;;11.10;99.90;;;;;;5016926;28;20514;-83
2022/10/31 06:43:31;;;;;;;21.90;12.50;;;11.20;99.90;;;;;;5034360;28;20175;-87
2022/10/31 06:45:57;;;;;;;22.43;11.67;;;11.20;99.90;;;;;;5034797;28;20177;-87
2022/10/31 06:48:24;;;;;;;25.90;13.10;;;11.20;99.90;;;;;;5034641;28;20186;-84
2022/10/31 06:50:49;;;;;;;28.83;12.53;;;11.20;99.90;;;;;;5034473;28;20695;-82
2022/10/31 06:53:15;;;;;;;29.73;13.17;;;11.20;99.90;;;;;;5034424;28;20420;-92
2022/10/31 06:55:41;;;;;;;25.33;13.67;;;11.30;99.90;;;;;;5034107;28;20168;-82
2022/10/31 06:58:08;;;;;;;40.67;15.17;;;11.40;99.90;;;;;;5034335;28;20174;-86
2022/10/31 07:00:34;;;;;;;31.80;13.87;;;11.50;99.90;;;;;;5034393;28;20413;-83
2022/10/31 07:03:05;;;;;;;27.67;12.80;;;11.50;99.90;;;;;;5034116;28;20774;-82
2022/10/31 07:05:32;;;;;;;31.60;14.37;;;11.60;99.90;;;;;;5034146;28;20217;-82
2022/10/31 07:08:05;;;;;;;28.30;13.27;;;11.60;99.90;;;;;;5033959;28;20415;-91
2022/10/31 07:10:32;;;;;;;26.63;12.60;;;11.70;99.90;;;;;;5033421;28;20413;-82
2022/10/31 07:12:59;;;;;;;24.00;12.97;;;11.90;99.90;;;;;;5033721;28;20417;-83
2022/10/31 07:15:26;;;;;;;28.10;14.23;;;12.00;99.90;;;;;;5034058;28;20493;-82
2022/10/31 07:17:52;;;;;;;33.90;14.73;;;12.10;99.90;;;;;;5033967;28;20421;-82
2022/10/31 07:20:18;;;;;;;26.57;13.50;;;12.10;99.90;;;;;;5033476;28;20466;-82
2022/10/31 07:22:44;;;;;;;26.83;13.43;;;12.30;99.90;;;;;;5033473;28;20504;-86
2022/10/31 07:25:10;;;;;;;25.23;11.50;;;12.30;99.90;;;;;;5033440;28;20173;-84
2022/10/31 07:27:40;;;;;;;25.33;14.00;;;12.50;99.90;;;;;;5033863;28;20416;-82
2022/10/31 07:30:06;;;;;;;33.03;15.30;;;12.50;99.90;;;;;;5034020;28;20504;-84
2022/10/31 07:32:43;;;;;;;34.47;16.50;;;12.60;99.90;;;;;;5034771;28;20427;-94
2022/10/31 07:35:10;;;;;;;30.33;15.37;;;12.80;99.90;;;;;;5035906;28;20417;-92
2022/10/31 07:37:36;;;;;;;29.20;14.07;;;12.80;99.90;;;;;;5036381;28;20406;-93
2022/10/31 07:40:06;;;;;;;30.93;14.03;;;12.80;99.90;;;;;;5035626;28;20468;-93
2022/10/31 07:42:43;;;;;;;24.20;14.00;;;12.90;99.90;;;;;;5036447;28;20325;-92
2022/10/31 07:45:11;;;;;;;33.97;16.03;;;12.90;99.90;;;;;;5036136;28;20412;-93
2022/10/31 07:47:47;;;;;;;29.70;15.30;;;13.00;99.90;;;;;;5019729;28;20430;-93
2022/10/31 07:50:16;;;;;;;34.70;17.47;;;13.00;99.90;;;;;;5037041;28;20827;-85
2022/10/31 07:52:42;;;;;;;38.77;17.70;;;12.90;99.90;;;;;;5037349;28;20431;-83
2022/10/31 07:55:08;;;;;;;39.90;16.80;;;12.90;99.90;;;;;;5038899;28;20867;-92
2022/10/31 07:57:34;;;;;;;37.97;17.30;;;12.90;99.90;;;;;;5038833;28;20908;-86
2022/10/31 07:59:59;;;;;;;33.63;16.10;;;12.90;99.90;;;;;;5042109;28;20515;-83
2022/10/31 08:02:25;;;;;;;29.27;16.27;;;12.80;99.90;;;;;;5038850;28;20183;-94
2022/10/31 08:04:51;;;;;;;31.93;16.57;;;12.80;99.90;;;;;;5035844;28;20265;-86
2022/10/31 08:07:17;;;;;;;31.20;16.23;;;12.90;99.90;;;;;;5038267;28;20445;-86
2022/10/31 08:09:42;;;;;;;28.40;16.30;;;12.90;99.90;;;;;;5037374;28;20177;-92
2022/10/31 08:12:11;;;;;;;33.97;18.07;;;12.90;99.90;;;;;;5039940;28;20421;-82
2022/10/31 08:14:36;;;;;;;31.27;16.17;;;12.90;99.90;;;;;;5038624;28;20179;-82
2022/10/31 08:17:01;;;;;;;33.17;15.43;;;12.90;99.90;;;;;;5045567;28;20927;-82
2022/10/31 08:19:27;;;;;;;33.37;16.57;;;12.90;99.90;;;;;;5056218;28;20300;-91
2022/10/31 08:21:54;;;;;;;29.30;15.50;;;12.80;99.90;;;;;;5054507;28;20178;-82
2022/10/31 08:24:20;;;;;;;33.03;15.50;;;12.90;99.90;;;;;;5054998;28;20241;-80
2022/10/31 08:26:46;;;;;;;32.80;17.47;;;12.90;99.90;;;;;;5056779;28;20468;-81
2022/10/31 08:29:11;;;;;;;28.47;15.60;;;12.90;99.90;;;;;;5056752;28;20492;-80
2022/10/31 08:31:37;;;;;;;31.90;15.60;;;12.90;99.90;;;;;;5056436;28;20176;-82
2022/10/31 08:34:11;;;;;;;33.67;16.23;;;12.90;99.90;;;;;;5056380;28;20174;-82
2022/10/31 08:36:37;;;;;;;24.80;14.40;;;12.90;99.90;;;;;;5056475;28;20181;-81
2022/10/31 08:39:03;;;;;;;28.63;14.67;;;12.90;99.90;;;;;;5056373;28;20514;-83
2022/10/31 08:41:29;;;;;;;31.13;14.90;;;12.80;99.90;;;;;;5056246;28;20175;-83
2022/10/31 08:43:54;;;;;;;27.20;12.50;;;12.80;99.90;;;;;;5056416;28;20811;-82
2022/10/31 08:46:20;;;;;;;27.13;13.73;;;12.80;99.90;;;;;;5056380;28;20415;-82
2022/10/31 08:48:48;;;;;;;28.47;13.77;;;12.80;99.90;;;;;;5056655;28;20180;-85
2022/10/31 08:51:13;;;;;;;30.87;13.53;;;12.90;99.90;;;;;;5032569;28;20249;-86
2022/10/31 08:53:39;;;;;;;22.07;12.40;;;12.90;99.90;;;;;;5034449;28;20413;-84
2022/10/31 08:56:05;;;;;;;30.43;11.20;;;12.90;99.90;;;;;;5017337;28;20271;-87
2022/10/31 08:58:30;;;;;;;22.10;12.97;;;12.90;99.90;;;;;;5034941;28;20217;-84
2022/10/31 09:00:58;;;;;;;28.80;13.10;;;13.00;99.90;;;;;;5035291;28;20178;-84
2022/10/31 09:03:26;;;;;;;25.60;14.30;;;13.00;99.90;;;;;;5017201;28;20665;-85
2022/10/31 09:05:55;;;;;;;24.17;12.90;;;13.10;99.90;;;;;;5056217;28;20449;-84
2022/10/31 09:08:21;;;;;;;27.50;13.60;;;13.20;99.90;;;;;;5032077;28;20425;-85
2022/10/31 09:10:47;;;;;;;31.83;13.80;;;13.40;99.90;;;;;;5054770;28;20409;-86
2022/10/31 09:13:18;;;;;;;24.07;14.00;;;13.60;99.90;;;;;;5036077;28;20425;-87
2022/10/31 09:15:47;;;;;;;25.40;13.23;;;13.60;99.90;;;;;;5038011;28;20665;-86
2022/10/31 09:18:14;;;;;;;23.20;13.30;;;13.70;99.90;;;;;;5035208;28;20903;-87
2022/10/31 09:20:41;;;;;;;27.20;13.80;;;13.60;99.90;;;;;;5035329;28;20430;-84
2022/10/31 09:23:13;;;;;;;29.50;13.03;;;13.60;99.90;;;;;;5034793;28;20472;-84
2022/10/31 09:25:42;;;;;;;29.33;12.77;;;13.60;99.90;;;;;;5034459;28;20426;-86
2022/10/31 09:28:13;;;;;;;31.37;13.17;;;13.60;99.90;;;;;;5034939;28;20530;-85
2022/10/31 09:30:39;;;;;;;29.90;14.30;;;13.50;99.90;;;;;;5036257;28;20460;-90
2022/10/31 09:33:07;;;;;;;28.93;13.43;;;13.50;99.90;;;;;;5036037;28;20418;-83
2022/10/31 09:35:32;;;;;;;29.63;13.80;;;13.60;99.90;;;;;;5035701;28;20471;-85
2022/10/31 09:38:03;;;;;;;28.17;13.30;;;13.70;99.90;;;;;;5035614;28;20514;-83
2022/10/31 09:40:34;;;;;;;23.93;12.50;;;13.70;99.90;;;;;;5035332;28;20220;-86
2022/10/31 09:43:23;;;;;;;29.07;12.20;;;13.70;99.90;;;;;;5035423;28;20414;-89
2022/10/31 09:46:13;;;;;;;30.50;12.40;;;13.70;99.90;;;;;;5035866;28;20456;-86
2022/10/31 09:48:58;;;;;;;29.20;12.60;;;13.70;99.90;;;;;;5035668;28;20483;-87
2022/10/31 09:51:28;;;;;;;21.60;11.97;;;13.60;99.90;;;;;;5035908;28;20516;-90
2022/10/31 09:54:04;;;;;;;29.07;13.33;;;13.60;99.90;;;;;;5044174;28;20421;-89
2022/10/31 09:56:31;;;;;;;24.93;12.77;;;13.60;99.90;;;;;;5041923;28;20414;-89
2022/10/31 09:59:00;;;;;;;23.13;11.60;;;13.70;99.90;;;;;;5045612;28;20457;-90
2022/10/31 10:01:44;;;;;;;22.37;11.87;;;13.70;99.90;;;;;;5020655;28;20468;-87
2022/10/31 10:04:17;;;;;;;24.80;11.33;;;13.70;99.90;;;;;;5039474;28;20511;-90
2022/10/31 10:06:47;;;;;;;28.67;13.97;;;13.70;99.90;;;;;;5021095;28;20432;-89
2022/10/31 10:09:12;;;;;;;27.87;13.53;;;13.70;99.90;;;;;;5038827;28;20410;-89
2022/10/31 10:12:09;;;;;;;25.20;12.13;;;13.70;99.90;;;;;;5038652;28;20417;-90
2022/10/31 10:14:49;;;;;;;37.97;14.73;;;13.80;99.90;;;;;;5021051;28;20263;-90
2022/10/31 10:17:24;;;;;;;27.07;12.60;;;13.70;99.90;;;;;;5021595;28;20421;-91
2022/10/31 10:20:02;;;;;;;22.73;13.20;;;13.70;99.90;;;;;;5035867;28;20463;-89
2022/10/31 10:22:50;;;;;;;22.73;12.20;;;13.70;99.90;;;;;;5040718;28;20413;-88
2022/10/31 10:25:21;;;;;;;24.30;14.60;;;13.70;99.90;;;;;;5002083;28;20525;-89
2022/10/31 10:28:06;;;;;;;24.60;12.73;;;13.70;99.90;;;;;;5042926;28;20402;-90
2022/10/31 10:30:48;;;;;;;24.10;12.73;;;13.70;99.90;;;;;;5022583;28;20427;-89
2022/10/31 10:33:22;;;;;;;23.03;13.20;;;13.80;99.90;;;;;;5041971;28;20414;-88
2022/10/31 10:35:53;;;;;;;27.17;14.03;;;13.80;99.90;;;;;;5045873;28;20962;-87
2022/10/31 10:38:51;;;;;;;23.70;12.93;;;13.80;99.90;;;;;;5045664;28;20415;-91
2022/10/31 10:41:20;;;;;;;23.60;12.27;;;13.80;99.90;;;;;;5046043;28;20410;-90
2022/10/31 10:43:48;;;;;;;23.10;13.67;;;13.70;99.90;;;;;;5042723;28;20745;-90
2022/10/31 10:49:08;;;;;;;22.37;11.93;;;13.80;99.90;;;;;;5040858;28;20430;-87
2022/10/31 10:51:50;;;;;;;28.13;13.17;;;13.70;99.90;;;;;;5040343;28;20420;-89
2022/10/31 10:54:24;;;;;;;21.13;13.03;;;13.80;99.90;;;;;;5017218;28;20428;-90
2022/10/31 10:57:21;;;;;;;23.77;13.73;;;13.80;99.90;;;;;;5035999;28;20775;-88
2022/10/31 10:59:47;;;;;;;23.17;12.73;;;13.90;99.90;;;;;;5036466;28;20459;-90
2022/10/31 11:02:19;;;;;;;24.43;13.50;;;13.90;99.90;;;;;;5037313;28;20429;-87
2022/10/31 11:04:49;;;;;;;16.43;10.27;;;13.80;99.90;;;;;;5039137;28;20182;-85
2022/10/31 11:07:15;;;;;;;25.17;12.63;;;13.90;99.90;;;;;;5035066;28;20418;-83
2022/10/31 11:09:40;;;;;;;24.00;13.03;;;13.80;99.90;;;;;;5035003;28;20505;-85
2022/10/31 11:12:30;;;;;;;22.10;13.40;;;14.00;99.90;;;;;;5034167;28;20168;-85
2022/10/31 11:15:00;;;;;;;23.00;12.77;;;14.00;99.90;;;;;;5035124;28;20164;-84
2022/10/31 11:17:38;;;;;;;20.57;10.83;;;14.10;99.90;;;;;;5034887;28;20932;-86
2022/10/31 11:20:28;;;;;;;20.23;12.47;;;14.10;99.90;;;;;;5034569;28;20527;-87
2022/10/31 11:23:13;;;;;;;17.53;11.33;;;14.00;99.90;;;;;;5022227;28;20463;-86
2022/10/31 11:25:39;;;;;;;24.57;12.60;;;14.10;99.90;;;;;;5032757;28;20475;-86
2022/10/31 11:28:08;;;;;;;22.30;11.90;;;14.10;99.90;;;;;;5033312;28;20410;-86
2022/10/31 11:30:55;;;;;;;19.03;11.03;;;14.10;99.90;;;;;;5033226;28;20170;-86
2022/10/31 11:33:28;;;;;;;18.40;10.23;;;14.10;99.90;;;;;;5033143;28;20449;-85
2022/10/31 11:35:54;;;;;;;18.27;11.80;;;14.20;99.90;;;;;;5033210;28;20915;-85
2022/10/31 11:38:22;;;;;;;22.57;11.73;;;14.20;99.90;;;;;;5033207;28;20478;-86
2022/10/31 11:40:58;;;;;;;17.83;11.00;;;14.20;99.90;;;;;;5032990;28;20433;-86
2022/10/31 11:43:27;;;;;;;21.60;12.57;;;14.20;99.90;;;;;;5033182;28;20413;-86
2022/10/31 11:45:57;;;;;;;19.60;12.80;;;14.20;99.90;;;;;;5033137;28;20406;-86
2022/10/31 11:48:24;;;;;;;19.33;11.07;;;14.20;99.90;;;;;;5015459;28;20427;-85
2022/10/31 11:50:54;;;;;;;18.97;11.80;;;14.30;99.90;;;;;;5033053;28;20463;-86
2022/10/31 11:53:26;;;;;;;15.17;8.80;;;14.30;99.90;;;;;;5033129;28;20450;-86
2022/10/31 11:56:04;;;;;;;18.90;11.10;;;14.30;99.90;;;;;;5035248;28;20454;-85
2022/10/31 11:58:29;;;;;;;15.40;10.17;;;14.20;99.90;;;;;;5038019;28;20929;-85
2022/10/31 12:00:56;;;;;;;17.43;11.10;;;14.20;99.90;;;;;;5052841;28;20423;-86
2022/10/31 12:03:22;;;;;;;15.90;8.33;;;14.30;99.90;;;;;;5043915;28;20668;-85
2022/10/31 12:05:58;;;;;;;16.53;9.20;;;14.30;99.90;;;;;;5029530;28;20521;-85
2022/10/31 12:08:35;;;;;;;16.10;8.63;;;14.20;99.90;;;;;;5040684;28;20612;-85
2022/10/31 12:11:28;;;;;;;19.57;11.30;;;14.30;99.90;;;;;;5032535;28;20949;-86
2022/10/31 12:13:57;;;;;;;14.97;8.60;;;14.40;99.90;;;;;;5032782;28;20418;-85
2022/10/31 12:16:55;;;;;;;16.37;9.37;;;14.50;99.90;;;;;;5032765;28;20486;-85
2022/10/31 12:20:00;;;;;;;13.63;8.43;;;14.60;99.90;;;;;;5027068;28;20876;-85
2022/10/31 12:22:52;;;;;;;13.90;8.60;;;14.60;99.90;;;;;;5019364;28;20434;-85
2022/10/31 12:25:49;;;;;;;12.23;8.30;;;14.80;99.90;;;;;;5035218;28;20884;-85
2022/10/31 12:28:39;;;;;;;13.57;8.50;;;14.80;99.90;;;;;;5032537;28;20508;-85
2022/10/31 12:31:22;;;;;;;11.50;8.10;;;14.80;99.90;;;;;;5024731;28;20409;-85
2022/10/31 12:34:19;;;;;;;11.80;9.37;;;14.80;99.90;;;;;;5019836;28;20410;-85
2022/10/31 12:37:16;;;;;;;16.03;10.00;;;14.80;99.90;;;;;;5012850;28;20418;-86
2022/10/31 12:40:02;;;;;;;14.87;8.90;;;14.80;99.90;;;;;;5012674;28;20797;-85
2022/10/31 12:43:05;;;;;;;14.70;10.63;;;14.60;99.90;;;;;;5028646;28;20466;-86
2022/10/31 12:45:53;;;;;;;14.87;8.90;;;14.60;99.90;;;;;;4994988;28;20463;-85
2022/10/31 12:48:43;;;;;;;12.20;8.73;;;14.60;99.90;;;;;;5019694;28;20427;-85
2022/10/31 12:51:29;;;;;;;13.50;8.53;;;14.70;99.90;;;;;;5012385;28;20466;-85
2022/10/31 12:54:18;;;;;;;15.37;8.30;;;14.90;99.90;;;;;;5012526;28;20430;-86
2022/10/31 12:57:09;;;;;;;13.90;7.30;;;15.00;99.90;;;;;;5012878;28;20451;-86